sensor_id;sensor_type;location;lat;lon;timestamp;pressure;altitude;pressure_sealevel;temperature;humidity
49104;BME280;34915;52.926;11.116;2022-08-07T00:01:33;102573.56;;;12.25;95.53
49104;BME280;34915;52.926;11.116;2022-08-07T00:03:58;102572.66;;;12.24;96.73
49104;BME280;34915;52.926;11.116;2022-08-07T00:06:24;102573.84;;;12.19;96.70
49104;BME280;34915;52.926;11.116;2022-08-07T00:08:50;102559.97;;;12.12;97.37
49104;BME280;34915;52.926;11.116;2022-08-07T00:11:17;102578.28;;;12.18;97.88
49104;BME280;34915;52.926;11.116;2022-08-07T00:13:42;102580.31;;;12.13;97.82
49104;BME280;34915;52.926;11.116;2022-08-07T00:16:11;102574.34;;;12.08;97.95
49104;BME280;34915;52.926;11.116;2022-08-07T00:18:37;102572.72;;;12.06;98.50
49104;BME280;34915;52.926;11.116;2022-08-07T00:21:05;102564.81;;;12.04;97.57
49104;BME280;34915;52.926;11.116;2022-08-07T00:23:32;102558.78;;;12.01;98.08
49104;BME280;34915;52.926;11.116;2022-08-07T00:26:00;102564.22;;;12.16;98.82
49104;BME280;34915;52.926;11.116;2022-08-07T00:28:28;102558.22;;;12.13;97.84
49104;BME280;34915;52.926;11.116;2022-08-07T00:30:53;102567.81;;;12.15;97.42
49104;BME280;34915;52.926;11.116;2022-08-07T00:33:19;102565.28;;;12.12;97.17
49104;BME280;34915;52.926;11.116;2022-08-07T00:35:46;102571.84;;;12.05;97.34
49104;BME280;34915;52.926;11.116;2022-08-07T00:38:12;102570.91;;;12.06;98.75
49104;BME280;34915;52.926;11.116;2022-08-07T00:40:37;102573.41;;;12.09;98.83
49104;BME280;34915;52.926;11.116;2022-08-07T00:43:03;102560.13;;;12.09;98.87
49104;BME280;34915;52.926;11.116;2022-08-07T00:45:29;102556.78;;;12.06;98.23
49104;BME280;34915;52.926;11.116;2022-08-07T00:47:55;102557.28;;;11.95;97.85
49104;BME280;34915;52.926;11.116;2022-08-07T00:50:20;102555.19;;;11.83;98.83
49104;BME280;34915;52.926;11.116;2022-08-07T00:52:46;102548.63;;;11.74;99.79
49104;BME280;34915;52.926;11.116;2022-08-07T00:55:11;102561.09;;;11.72;100.00
49104;BME280;34915;52.926;11.116;2022-08-07T00:57:38;102564.53;;;11.74;99.77
49104;BME280;34915;52.926;11.116;2022-08-07T01:00:05;102560.94;;;11.75;99.69
49104;BME280;34915;52.926;11.116;2022-08-07T01:02:31;102564.41;;;11.77;99.78
49104;BME280;34915;52.926;11.116;2022-08-07T01:04:57;102556.66;;;11.72;98.62
49104;BME280;34915;52.926;11.116;2022-08-07T01:07:24;102562.97;;;11.70;98.81
49104;BME280;34915;52.926;11.116;2022-08-07T01:09:50;102564.69;;;11.71;99.60
49104;BME280;34915;52.926;11.116;2022-08-07T01:12:16;102565.09;;;11.62;98.75
49104;BME280;34915;52.926;11.116;2022-08-07T01:14:41;102564.44;;;11.57;100.00
49104;BME280;34915;52.926;11.116;2022-08-07T01:17:10;102572.56;;;11.54;100.00
49104;BME280;34915;52.926;11.116;2022-08-07T01:19:36;102553.06;;;11.55;100.00
49104;BME280;34915;52.926;11.116;2022-08-07T01:22:02;102560.44;;;11.67;100.00
49104;BME280;34915;52.926;11.116;2022-08-07T01:24:29;102555.63;;;11.75;100.00
49104;BME280;34915;52.926;11.116;2022-08-07T01:26:54;102555.47;;;11.78;100.00
49104;BME280;34915;52.926;11.116;2022-08-07T01:29:25;102557.34;;;11.76;99.98
49104;BME280;34915;52.926;11.116;2022-08-07T01:31:51;102550.75;;;11.66;99.21
49104;BME280;34915;52.926;11.116;2022-08-07T01:34:17;102557.25;;;11.59;98.74
49104;BME280;34915;52.926;11.116;2022-08-07T01:36:44;102558.50;;;11.52;99.96
49104;BME280;34915;52.926;11.116;2022-08-07T01:39:10;102554.50;;;11.42;100.00
49104;BME280;34915;52.926;11.116;2022-08-07T01:41:37;102568.63;;;11.42;99.78
49104;BME280;34915;52.926;11.116;2022-08-07T01:44:04;102555.84;;;11.32;100.00
49104;BME280;34915;52.926;11.116;2022-08-07T01:46:30;102561.44;;;11.26;100.00
49104;BME280;34915;52.926;11.116;2022-08-07T01:48:55;102561.56;;;11.23;100.00
49104;BME280;34915;52.926;11.116;2022-08-07T01:51:25;102561.28;;;11.29;100.00
49104;BME280;34915;52.926;11.116;2022-08-07T01:53:56;102560.59;;;11.44;100.00
49104;BME280;34915;52.926;11.116;2022-08-07T01:56:26;102549.84;;;11.47;100.00
49104;BME280;34915;52.926;11.116;2022-08-07T01:59:02;102560.47;;;11.47;98.62
49104;BME280;34915;52.926;11.116;2022-08-07T02:01:34;102550.69;;;11.29;99.30
49104;BME280;34915;52.926;11.116;2022-08-07T02:04:25;102558.25;;;11.18;99.68
49104;BME280;34915;52.926;11.116;2022-08-07T02:06:49;102551.78;;;11.05;100.00
49104;BME280;34915;52.926;11.116;2022-08-07T02:09:17;102546.72;;;10.99;100.00
49104;BME280;34915;52.926;11.116;2022-08-07T02:11:46;102541.69;;;10.93;100.00
49104;BME280;34915;52.926;11.116;2022-08-07T02:14:14;102538.53;;;10.85;100.00
49104;BME280;34915;52.926;11.116;2022-08-07T02:16:41;102547.25;;;10.87;100.00
49104;BME280;34915;52.926;11.116;2022-08-07T02:19:11;102538.66;;;10.82;100.00
49104;BME280;34915;52.926;11.116;2022-08-07T02:21:38;102547.41;;;10.84;100.00
49104;BME280;34915;52.926;11.116;2022-08-07T02:24:05;102535.47;;;10.75;100.00
49104;BME280;34915;52.926;11.116;2022-08-07T02:26:33;102550.38;;;10.77;100.00
49104;BME280;34915;52.926;11.116;2022-08-07T02:29:01;102535.59;;;10.72;100.00
49104;BME280;34915;52.926;11.116;2022-08-07T02:31:30;102549.09;;;10.66;100.00
49104;BME280;34915;52.926;11.116;2022-08-07T02:33:57;102534.41;;;10.59;100.00
49104;BME280;34915;52.926;11.116;2022-08-07T02:36:24;102532.88;;;10.53;100.00
49104;BME280;34915;52.926;11.116;2022-08-07T02:38:51;102532.94;;;10.52;100.00
49104;BME280;34915;52.926;11.116;2022-08-07T02:41:17;102538.91;;;10.57;100.00
49104;BME280;34915;52.926;11.116;2022-08-07T02:43:44;102526.03;;;10.48;100.00
49104;BME280;34915;52.926;11.116;2022-08-07T02:46:14;102540.06;;;10.50;100.00
49104;BME280;34915;52.926;11.116;2022-08-07T02:48:40;102536.63;;;10.48;100.00
49104;BME280;34915;52.926;11.116;2022-08-07T02:51:09;102540.34;;;10.44;100.00
49104;BME280;34915;52.926;11.116;2022-08-07T02:53:37;102545.75;;;10.41;100.00
49104;BME280;34915;52.926;11.116;2022-08-07T02:56:06;102542.31;;;10.39;100.00
49104;BME280;34915;52.926;11.116;2022-08-07T02:58:36;102535.28;;;10.38;100.00
49104;BME280;34915;52.926;11.116;2022-08-07T03:01:02;102533.03;;;10.29;100.00
49104;BME280;34915;52.926;11.116;2022-08-07T03:03:30;102545.88;;;10.38;100.00
49104;BME280;34915;52.926;11.116;2022-08-07T03:05:58;102549.38;;;10.40;100.00
49104;BME280;34915;52.926;11.116;2022-08-07T03:08:24;102538.75;;;10.40;100.00
49104;BME280;34915;52.926;11.116;2022-08-07T03:10:50;102542.31;;;10.39;100.00
49104;BME280;34915;52.926;11.116;2022-08-07T03:13:17;102547.63;;;10.39;100.00
49104;BME280;34915;52.926;11.116;2022-08-07T03:15:43;102543.19;;;10.39;100.00
49104;BME280;34915;52.926;11.116;2022-08-07T03:18:09;102538.75;;;10.40;100.00
49104;BME280;34915;52.926;11.116;2022-08-07T03:20:35;102534.31;;;10.40;100.00
49104;BME280;34915;52.926;11.116;2022-08-07T03:23:03;102535.97;;;10.43;100.00
49104;BME280;34915;52.926;11.116;2022-08-07T03:25:30;102536.63;;;10.48;100.00
49104;BME280;34915;52.926;11.116;2022-08-07T03:27:58;102537.97;;;10.58;100.00
49104;BME280;34915;52.926;11.116;2022-08-07T03:30:25;102534.50;;;10.56;100.00
49104;BME280;34915;52.926;11.116;2022-08-07T03:32:52;102534.66;;;10.53;100.00
49104;BME280;34915;52.926;11.116;2022-08-07T03:35:22;102532.81;;;10.55;100.00
49104;BME280;34915;52.926;11.116;2022-08-07T03:38:00;102535.66;;;10.50;100.00
49104;BME280;34915;52.926;11.116;2022-08-07T03:40:28;102536.78;;;10.45;100.00
49104;BME280;34915;52.926;11.116;2022-08-07T03:42:54;102547.25;;;10.48;99.46
49104;BME280;34915;52.926;11.116;2022-08-07T03:45:22;102545.88;;;10.38;99.71
49104;BME280;34915;52.926;11.116;2022-08-07T03:47:48;102539.94;;;10.33;100.00
49104;BME280;34915;52.926;11.116;2022-08-07T03:50:15;102551.50;;;10.31;99.99
49104;BME280;34915;52.926;11.116;2022-08-07T03:52:43;102544.66;;;10.25;100.00
49104;BME280;34915;52.926;11.116;2022-08-07T03:55:09;102543.81;;;10.25;99.75
49104;BME280;34915;52.926;11.116;2022-08-07T03:57:35;102547.88;;;10.33;100.00
49104;BME280;34915;52.926;11.116;2022-08-07T04:00:02;102554.88;;;10.34;100.00
49104;BME280;34915;52.926;11.116;2022-08-07T04:02:29;102541.09;;;10.26;99.79
49104;BME280;34915;52.926;11.116;2022-08-07T04:04:55;102554.88;;;10.34;100.00
49104;BME280;34915;52.926;11.116;2022-08-07T04:07:21;102555.38;;;10.22;99.96
49104;BME280;34915;52.926;11.116;2022-08-07T04:09:47;102558.84;;;10.24;100.00
49104;BME280;34915;52.926;11.116;2022-08-07T04:12:14;102555.13;;;10.28;100.00
49104;BME280;34915;52.926;11.116;2022-08-07T04:14:40;102556.88;;;10.29;100.00
49104;BME280;34915;52.926;11.116;2022-08-07T04:17:07;102558.72;;;10.27;100.00
49104;BME280;34915;52.926;11.116;2022-08-07T04:19:33;102548.38;;;10.21;100.00
49104;BME280;34915;52.926;11.116;2022-08-07T04:22:00;102548.50;;;10.18;100.00
49104;BME280;34915;52.926;11.116;2022-08-07T04:24:26;102543.22;;;10.18;100.00
49104;BME280;34915;52.926;11.116;2022-08-07T04:26:52;102556.22;;;10.24;100.00
49104;BME280;34915;52.926;11.116;2022-08-07T04:29:18;102549.72;;;10.31;100.00
49104;BME280;34915;52.926;11.116;2022-08-07T04:31:44;102558.09;;;10.42;100.00
49104;BME280;34915;52.926;11.116;2022-08-07T04:34:10;102557.84;;;10.48;100.00
49104;BME280;34915;52.926;11.116;2022-08-07T04:36:36;102564.75;;;10.52;100.00
49104;BME280;34915;52.926;11.116;2022-08-07T04:39:04;102562.75;;;10.57;100.00
49104;BME280;34915;52.926;11.116;2022-08-07T04:41:30;102561.00;;;10.56;100.00
49104;BME280;34915;52.926;11.116;2022-08-07T04:43:56;102562.88;;;10.54;100.00
49104;BME280;34915;52.926;11.116;2022-08-07T04:52:20;102562.22;;;10.69;100.00
49104;BME280;34915;52.926;11.116;2022-08-07T04:54:56;102567.13;;;10.78;100.00
49104;BME280;34915;52.926;11.116;2022-08-07T04:57:51;102564.25;;;10.83;100.00
49104;BME280;34915;52.926;11.116;2022-08-07T05:05:50;102575.63;;;10.85;100.00
49104;BME280;34915;52.926;11.116;2022-08-07T05:08:26;102563.31;;;10.84;100.00
49104;BME280;34915;52.926;11.116;2022-08-07T05:11:00;102565.56;;;10.93;100.00
49104;BME280;34915;52.926;11.116;2022-08-07T05:13:35;102561.06;;;10.95;100.00
49104;BME280;34915;52.926;11.116;2022-08-07T05:16:08;102569.53;;;11.03;100.00
49104;BME280;34915;52.926;11.116;2022-08-07T05:18:46;102566.47;;;11.12;100.00
49104;BME280;34915;52.926;11.116;2022-08-07T05:21:13;102566.88;;;11.23;100.00
49104;BME280;34915;52.926;11.116;2022-08-07T05:24:03;102573.22;;;11.39;100.00
49104;BME280;34915;52.926;11.116;2022-08-07T05:26:32;102573.72;;;11.47;100.00
49104;BME280;34915;52.926;11.116;2022-08-07T05:29:00;102572.28;;;11.60;100.00
49104;BME280;34915;52.926;11.116;2022-08-07T05:31:30;102575.31;;;11.71;100.00
49104;BME280;34915;52.926;11.116;2022-08-07T05:33:58;102575.03;;;11.77;100.00
49104;BME280;34915;52.926;11.116;2022-08-07T05:36:26;102576.22;;;11.88;100.00
49104;BME280;34915;52.926;11.116;2022-08-07T05:38:52;102577.44;;;11.99;100.00
49104;BME280;34915;52.926;11.116;2022-08-07T05:41:18;102567.78;;;11.98;100.00
49104;BME280;34915;52.926;11.116;2022-08-07T05:43:48;102582.81;;;12.16;100.00
49104;BME280;34915;52.926;11.116;2022-08-07T05:46:15;102585.03;;;12.25;100.00
49104;BME280;34915;52.926;11.116;2022-08-07T05:48:44;102581.78;;;12.37;100.00
49104;BME280;34915;52.926;11.116;2022-08-07T05:51:10;102578.66;;;12.46;100.00
49104;BME280;34915;52.926;11.116;2022-08-07T05:53:36;102571.19;;;12.54;100.00
49104;BME280;34915;52.926;11.116;2022-08-07T05:56:02;102582.84;;;12.68;100.00
49104;BME280;34915;52.926;11.116;2022-08-07T05:58:32;102578.84;;;12.77;100.00
49104;BME280;34915;52.926;11.116;2022-08-07T06:00:59;102581.41;;;12.96;100.00
49104;BME280;34915;52.926;11.116;2022-08-07T06:03:27;102578.41;;;13.19;98.26
49104;BME280;34915;52.926;11.116;2022-08-07T06:05:53;102561.63;;;13.34;94.97
49104;BME280;34915;52.926;11.116;2022-08-07T06:08:19;102572.41;;;13.48;94.61
49104;BME280;34915;52.926;11.116;2022-08-07T06:10:45;102566.84;;;13.52;96.58
49104;BME280;34915;52.926;11.116;2022-08-07T06:13:11;102572.19;;;13.68;96.56
49104;BME280;34915;52.926;11.116;2022-08-07T06:15:38;102571.31;;;13.82;96.99
49104;BME280;34915;52.926;11.116;2022-08-07T06:18:05;102567.38;;;13.89;95.12
49104;BME280;34915;52.926;11.116;2022-08-07T06:20:34;102566.88;;;13.98;94.32
49104;BME280;34915;52.926;11.116;2022-08-07T06:23:04;102565.44;;;14.08;94.22
49104;BME280;34915;52.926;11.116;2022-08-07T06:25:32;102565.38;;;14.25;94.38
49104;BME280;34915;52.926;11.116;2022-08-07T06:28:05;102566.38;;;14.38;93.90
49104;BME280;34915;52.926;11.116;2022-08-07T06:30:32;102562.03;;;14.51;94.97
49104;BME280;34915;52.926;11.116;2022-08-07T06:33:00;102575.81;;;14.59;93.50
49104;BME280;34915;52.926;11.116;2022-08-07T06:35:26;102578.03;;;14.66;93.91
49104;BME280;34915;52.926;11.116;2022-08-07T06:37:51;102572.28;;;14.87;93.67
49104;BME280;34915;52.926;11.116;2022-08-07T06:40:18;102578.78;;;14.97;91.65
49104;BME280;34915;52.926;11.116;2022-08-07T06:42:46;102579.38;;;15.02;91.94
49104;BME280;34915;52.926;11.116;2022-08-07T06:45:17;102579.00;;;15.08;91.23
49104;BME280;34915;52.926;11.116;2022-08-07T06:47:43;102568.56;;;15.19;92.03
49104;BME280;34915;52.926;11.116;2022-08-07T06:50:10;102557.88;;;15.19;92.81
49104;BME280;34915;52.926;11.116;2022-08-07T06:52:37;102578.72;;;15.56;89.09
49104;BME280;34915;52.926;11.116;2022-08-07T06:55:11;102575.44;;;15.78;84.64
49104;BME280;34915;52.926;11.116;2022-08-07T06:57:40;102571.94;;;15.92;83.47
49104;BME280;34915;52.926;11.116;2022-08-07T07:00:08;102578.88;;;15.94;82.55
49104;BME280;34915;52.926;11.116;2022-08-07T07:02:35;102572.56;;;15.95;82.59
49104;BME280;34915;52.926;11.116;2022-08-07T07:05:02;102575.59;;;16.03;83.31
49104;BME280;34915;52.926;11.116;2022-08-07T07:07:28;102573.56;;;16.21;81.44
49104;BME280;34915;52.926;11.116;2022-08-07T07:09:54;102568.41;;;16.18;81.58
49104;BME280;34915;52.926;11.116;2022-08-07T07:15:12;102569.63;;;16.40;81.66
49104;BME280;34915;52.926;11.116;2022-08-07T07:18:09;102567.84;;;16.53;81.11
49104;BME280;34915;52.926;11.116;2022-08-07T07:20:42;102563.38;;;16.66;80.42
49104;BME280;34915;52.926;11.116;2022-08-07T07:23:08;102564.44;;;16.89;79.31
49104;BME280;34915;52.926;11.116;2022-08-07T07:25:38;102565.63;;;17.10;78.07
49104;BME280;34915;52.926;11.116;2022-08-07T07:28:19;102560.44;;;17.21;75.84
49104;BME280;34915;52.926;11.116;2022-08-07T07:30:50;102555.44;;;17.15;77.56
49104;BME280;34915;52.926;11.116;2022-08-07T07:33:18;102561.91;;;17.25;79.63
49104;BME280;34915;52.926;11.116;2022-08-07T07:35:47;102559.78;;;17.42;76.67
49104;BME280;34915;52.926;11.116;2022-08-07T07:38:17;102553.88;;;17.50;76.59
49104;BME280;34915;52.926;11.116;2022-08-07T07:40:43;102537.91;;;17.61;76.70
49104;BME280;34915;52.926;11.116;2022-08-07T07:43:11;102531.88;;;17.70;75.10
49104;BME280;34915;52.926;11.116;2022-08-07T07:45:42;102546.63;;;17.87;74.72
49104;BME280;34915;52.926;11.116;2022-08-07T07:48:12;102543.13;;;18.10;72.14
49104;BME280;34915;52.926;11.116;2022-08-07T07:50:39;102540.56;;;18.09;72.88
49104;BME280;34915;52.926;11.116;2022-08-07T07:53:09;102541.00;;;18.15;74.22
49104;BME280;34915;52.926;11.116;2022-08-07T07:55:36;102550.41;;;18.33;73.86
49104;BME280;34915;52.926;11.116;2022-08-07T07:58:02;102543.88;;;18.48;69.92
49104;BME280;34915;52.926;11.116;2022-08-07T08:00:30;102538.06;;;18.65;70.04
49104;BME280;34915;52.926;11.116;2022-08-07T08:03:16;102536.22;;;18.88;68.10
49104;BME280;34915;52.926;11.116;2022-08-07T08:05:44;102534.09;;;19.04;67.04
49104;BME280;34915;52.926;11.116;2022-08-07T08:08:11;102530.69;;;19.13;68.35
49104;BME280;34915;52.926;11.116;2022-08-07T08:10:38;102527.16;;;19.34;69.20
49104;BME280;34915;52.926;11.116;2022-08-07T08:13:05;102527.06;;;19.47;64.92
49104;BME280;34915;52.926;11.116;2022-08-07T08:15:35;102523.91;;;19.64;64.46
49104;BME280;34915;52.926;11.116;2022-08-07T08:18:06;102523.41;;;19.70;63.69
49104;BME280;34915;52.926;11.116;2022-08-07T08:20:33;102516.66;;;19.86;66.40
49104;BME280;34915;52.926;11.116;2022-08-07T08:23:00;102515.81;;;19.96;61.70
49104;BME280;34915;52.926;11.116;2022-08-07T08:25:48;102518.50;;;20.07;63.49
49104;BME280;34915;52.926;11.116;2022-08-07T08:28:36;102514.28;;;20.25;57.99
49104;BME280;34915;52.926;11.116;2022-08-07T08:31:06;102513.38;;;20.35;59.69
49104;BME280;34915;52.926;11.116;2022-08-07T08:33:33;102508.06;;;20.45;55.37
49104;BME280;34915;52.926;11.116;2022-08-07T08:36:01;102514.41;;;20.55;57.16
49104;BME280;34915;52.926;11.116;2022-08-07T08:38:31;102506.31;;;20.55;56.66
49104;BME280;34915;52.926;11.116;2022-08-07T08:41:12;102512.91;;;20.73;58.64
49104;BME280;34915;52.926;11.116;2022-08-07T08:46:41;102504.22;;;20.89;57.78
49104;BME280;34915;52.926;11.116;2022-08-07T08:52:11;102490.06;;;20.97;55.14
49104;BME280;34915;52.926;11.116;2022-08-07T08:57:34;102499.59;;;21.21;50.18
49104;BME280;34915;52.926;11.116;2022-08-07T09:00:11;102500.38;;;21.32;52.65
49104;BME280;34915;52.926;11.116;2022-08-07T09:05:23;102494.19;;;21.21;51.60
49104;BME280;34915;52.926;11.116;2022-08-07T09:07:53;102494.56;;;21.37;53.38
49104;BME280;34915;52.926;11.116;2022-08-07T09:13:19;102487.56;;;21.55;50.45
49104;BME280;34915;52.926;11.116;2022-08-07T09:21:12;102483.63;;;21.59;53.37
49104;BME280;34915;52.926;11.116;2022-08-07T09:26:53;102476.03;;;21.82;51.32
49104;BME280;34915;52.926;11.116;2022-08-07T09:29:32;102477.47;;;21.86;51.58
49104;BME280;34915;52.926;11.116;2022-08-07T09:35:09;102472.00;;;21.68;51.16
49104;BME280;34915;52.926;11.116;2022-08-07T09:37:44;102469.41;;;21.57;51.24
49104;BME280;34915;52.926;11.116;2022-08-07T09:40:21;102463.72;;;21.60;50.76
49104;BME280;34915;52.926;11.116;2022-08-07T09:45:43;102469.56;;;21.35;53.10
49104;BME280;34915;52.926;11.116;2022-08-07T09:51:10;102459.22;;;21.70;51.08
49104;BME280;34915;52.926;11.116;2022-08-07T09:53:41;102459.06;;;21.62;51.47
49104;BME280;34915;52.926;11.116;2022-08-07T09:59:36;102459.72;;;20.95;52.74
49104;BME280;34915;52.926;11.116;2022-08-07T10:30:23;102431.06;;;20.74;54.87
49104;BME280;34915;52.926;11.116;2022-08-07T10:36:23;102433.00;;;20.51;56.68
49104;BME280;34915;52.926;11.116;2022-08-07T10:41:26;102422.81;;;20.95;52.00
49104;BME280;34915;52.926;11.116;2022-08-07T10:44:03;102416.44;;;21.26;52.40
49104;BME280;34915;52.926;11.116;2022-08-07T10:46:39;102398.97;;;21.60;49.58
49104;BME280;34915;52.926;11.116;2022-08-07T10:49:26;102410.69;;;21.79;51.07
49104;BME280;34915;52.926;11.116;2022-08-07T10:52:15;102412.09;;;22.02;50.79
49104;BME280;34915;52.926;11.116;2022-08-07T10:54:52;102402.75;;;22.15;48.93
49104;BME280;34915;52.926;11.116;2022-08-07T11:10:54;102378.56;;;22.04;50.38
49104;BME280;34915;52.926;11.116;2022-08-07T11:16:40;102382.53;;;22.00;50.24
49104;BME280;34915;52.926;11.116;2022-08-07T11:21:45;102381.97;;;21.78;48.28
49104;BME280;34915;52.926;11.116;2022-08-07T11:24:36;102377.66;;;21.57;51.59
49104;BME280;34915;52.926;11.116;2022-08-07T11:30:10;102368.78;;;21.36;49.53
49104;BME280;34915;52.926;11.116;2022-08-07T11:32:40;102366.91;;;21.27;51.00
49104;BME280;34915;52.926;11.116;2022-08-07T11:35:13;102365.94;;;21.37;51.92
49104;BME280;34915;52.926;11.116;2022-08-07T11:40:32;102354.81;;;21.61;51.86
49104;BME280;34915;52.926;11.116;2022-08-07T11:43:20;102351.84;;;21.64;52.99
49104;BME280;34915;52.926;11.116;2022-08-07T11:54:15;102341.63;;;22.24;46.84
49104;BME280;34915;52.926;11.116;2022-08-07T12:02:56;102342.22;;;22.08;49.21
49104;BME280;34915;52.926;11.116;2022-08-07T12:08:23;102330.50;;;22.55;45.50
49104;BME280;34915;52.926;11.116;2022-08-07T12:11:30;102323.63;;;22.70;43.59
49104;BME280;34915;52.926;11.116;2022-08-07T12:16:30;102315.63;;;22.77;45.12
49104;BME280;34915;52.926;11.116;2022-08-07T12:19:19;102315.63;;;22.77;45.19
49104;BME280;34915;52.926;11.116;2022-08-07T12:24:50;102317.03;;;22.81;48.32
49104;BME280;34915;52.926;11.116;2022-08-07T12:27:40;102316.44;;;22.87;47.08
49104;BME280;34915;52.926;11.116;2022-08-07T12:30:08;102311.56;;;23.00;47.59
49104;BME280;34915;52.926;11.116;2022-08-07T12:32:49;102311.41;;;23.28;42.49
49104;BME280;34915;52.926;11.116;2022-08-07T12:35:20;102299.28;;;23.15;44.77
49104;BME280;34915;52.926;11.116;2022-08-07T12:37:50;102302.81;;;23.16;44.99
49104;BME280;34915;52.926;11.116;2022-08-07T12:40:19;102306.66;;;23.13;46.19
49104;BME280;34915;52.926;11.116;2022-08-07T12:42:47;102300.41;;;23.13;46.38
49104;BME280;34915;52.926;11.116;2022-08-07T12:45:18;102299.28;;;23.15;46.63
49104;BME280;34915;52.926;11.116;2022-08-07T12:50:25;102296.81;;;23.39;44.18
49104;BME280;34915;52.926;11.116;2022-08-07T12:55:37;102293.41;;;22.83;44.35
49104;BME280;34915;52.926;11.116;2022-08-07T12:58:09;102290.59;;;22.76;45.39
49104;BME280;34915;52.926;11.116;2022-08-07T13:00:49;102290.09;;;22.89;46.34
49104;BME280;34915;52.926;11.116;2022-08-07T13:14:45;102281.81;;;22.64;46.70
49104;BME280;34915;52.926;11.116;2022-08-07T13:17:26;102286.03;;;22.40;48.04
49104;BME280;34915;52.926;11.116;2022-08-07T13:20:08;102285.94;;;22.23;48.99
49104;BME280;34915;52.926;11.116;2022-08-07T13:22:58;102286.19;;;22.10;48.16
49104;BME280;34915;52.926;11.116;2022-08-07T13:27:55;102274.25;;;22.03;48.86
49104;BME280;34915;52.926;11.116;2022-08-07T13:30:23;102269.69;;;22.13;47.57
49104;BME280;34915;52.926;11.116;2022-08-07T13:35:35;102261.44;;;22.43;45.61
49104;BME280;34915;52.926;11.116;2022-08-07T13:43:45;102262.44;;;22.69;43.16
49104;BME280;34915;52.926;11.116;2022-08-07T13:46:13;102241.63;;;22.78;43.33
49104;BME280;34915;52.926;11.116;2022-08-07T13:48:45;102255.06;;;22.71;43.88
49104;BME280;34915;52.926;11.116;2022-08-07T13:51:14;102250.25;;;22.65;43.85
49104;BME280;34915;52.926;11.116;2022-08-07T13:53:41;102251.75;;;22.50;47.89
49104;BME280;34915;52.926;11.116;2022-08-07T13:56:16;102246.34;;;22.40;45.66
49104;BME280;34915;52.926;11.116;2022-08-07T13:58:43;102241.00;;;22.31;49.58
49104;BME280;34915;52.926;11.116;2022-08-07T14:01:27;102246.91;;;22.44;50.03
49104;BME280;34915;52.926;11.116;2022-08-07T14:03:55;102235.53;;;22.77;45.32
49104;BME280;34915;52.926;11.116;2022-08-07T14:06:22;102234.84;;;22.75;45.91
49104;BME280;34915;52.926;11.116;2022-08-07T14:08:49;102236.00;;;22.63;46.00
49104;BME280;34915;52.926;11.116;2022-08-07T14:11:20;102233.22;;;22.55;45.34
49104;BME280;34915;52.926;11.116;2022-08-07T14:13:50;102229.00;;;22.43;45.82
49104;BME280;34915;52.926;11.116;2022-08-07T14:16:24;102230.50;;;22.28;46.70
49104;BME280;34915;52.926;11.116;2022-08-07T14:18:52;102214.31;;;22.09;48.53
49104;BME280;34915;52.926;11.116;2022-08-07T14:21:26;102227.25;;;21.96;48.95
49104;BME280;34915;52.926;11.116;2022-08-07T14:26:50;102218.91;;;21.80;49.50
49104;BME280;34915;52.926;11.116;2022-08-07T14:29:23;102223.56;;;21.78;47.50
49104;BME280;34915;52.926;11.116;2022-08-07T14:31:50;102222.56;;;21.98;49.77
49104;BME280;34915;52.926;11.116;2022-08-07T14:34:18;102213.56;;;22.62;43.80
49104;BME280;34915;52.926;11.116;2022-08-07T14:36:46;102206.19;;;23.08;43.94
49104;BME280;34915;52.926;11.116;2022-08-07T14:39:15;102205.75;;;23.30;41.65
49104;BME280;34915;52.926;11.116;2022-08-07T14:41:43;102211.78;;;23.24;44.01
49104;BME280;34915;52.926;11.116;2022-08-07T14:44:13;102212.09;;;23.21;44.08
49104;BME280;34915;52.926;11.116;2022-08-07T14:46:41;102208.06;;;23.25;42.97
49104;BME280;34915;52.926;11.116;2022-08-07T14:49:08;102203.41;;;23.35;43.63
49104;BME280;34915;52.926;11.116;2022-08-07T14:51:36;102198.00;;;23.35;43.65
49104;BME280;34915;52.926;11.116;2022-08-07T14:54:04;102201.25;;;23.56;44.49
49104;BME280;34915;52.926;11.116;2022-08-07T14:56:30;102204.50;;;23.77;41.66
49104;BME280;34915;52.926;11.116;2022-08-07T14:59:01;102199.75;;;23.96;42.01
49104;BME280;34915;52.926;11.116;2022-08-07T15:01:35;102188.59;;;23.74;42.25
49104;BME280;34915;52.926;11.116;2022-08-07T15:04:02;102195.81;;;23.56;42.78
49104;BME280;34915;52.926;11.116;2022-08-07T15:06:31;102210.84;;;23.33;45.08
49104;BME280;34915;52.926;11.116;2022-08-07T15:09:06;102193.91;;;22.96;43.59
49104;BME280;34915;52.926;11.116;2022-08-07T15:11:38;102206.00;;;22.92;45.43
49104;BME280;34915;52.926;11.116;2022-08-07T15:14:07;102194.28;;;23.01;43.01
49104;BME280;34915;52.926;11.116;2022-08-07T15:16:48;102205.19;;;22.82;45.05
49104;BME280;34915;52.926;11.116;2022-08-07T15:19:18;102198.19;;;22.63;46.55
49104;BME280;34915;52.926;11.116;2022-08-07T15:21:52;102198.69;;;22.49;47.35
49104;BME280;34915;52.926;11.116;2022-08-07T15:24:34;102194.34;;;22.29;48.51
49104;BME280;34915;52.926;11.116;2022-08-07T15:27:07;102189.97;;;22.55;47.23
49104;BME280;34915;52.926;11.116;2022-08-07T15:29:38;102190.44;;;23.21;41.91
49104;BME280;34915;52.926;11.116;2022-08-07T15:32:05;102191.34;;;23.47;43.84
49104;BME280;34915;52.926;11.116;2022-08-07T15:34:36;102189.06;;;23.52;42.35